sensor_id;sensor_type;location;lat;lon;timestamp;P1;durP1;ratioP1;P2;durP2;ratioP2
41263;SDS011;26998;48.714;9.414;2023-04-08T00:01:50;14.00;;;11.63;;
41263;SDS011;26998;48.714;9.414;2023-04-08T00:04:17;17.05;;;12.50;;
41263;SDS011;26998;48.714;9.414;2023-04-08T00:06:45;17.52;;;12.73;;
41263;SDS011;26998;48.714;9.414;2023-04-08T00:09:11;16.50;;;13.10;;
41263;SDS011;26998;48.714;9.414;2023-04-08T00:11:38;18.10;;;13.60;;
41263;SDS011;26998;48.714;9.414;2023-04-08T00:14:04;16.83;;;13.90;;
41263;SDS011;26998;48.714;9.414;2023-04-08T00:16:32;20.08;;;14.88;;
41263;SDS011;26998;48.714;9.414;2023-04-08T00:18:58;16.38;;;12.75;;
41263;SDS011;26998;48.714;9.414;2023-04-08T00:21:25;16.90;;;12.63;;
41263;SDS011;26998;48.714;9.414;2023-04-08T00:23:51;17.95;;;12.45;;
41263;SDS011;26998;48.714;9.414;2023-04-08T00:26:19;16.80;;;13.15;;
41263;SDS011;26998;48.714;9.414;2023-04-08T00:28:46;17.73;;;12.32;;
41263;SDS011;26998;48.714;9.414;2023-04-08T00:31:13;18.70;;;12.63;;
41263;SDS011;26998;48.714;9.414;2023-04-08T00:33:39;16.83;;;12.70;;
41263;SDS011;26998;48.714;9.414;2023-04-08T00:36:07;18.05;;;14.07;;
41263;SDS011;26998;48.714;9.414;2023-04-08T00:38:34;17.80;;;13.43;;
41263;SDS011;26998;48.714;9.414;2023-04-08T00:41:01;24.55;;;15.60;;
41263;SDS011;26998;48.714;9.414;2023-04-08T00:43:27;20.15;;;14.50;;
41263;SDS011;26998;48.714;9.414;2023-04-08T00:45:54;22.40;;;15.30;;
41263;SDS011;26998;48.714;9.414;2023-04-08T00:48:20;21.88;;;15.05;;
41263;SDS011;26998;48.714;9.414;2023-04-08T00:50:47;22.27;;;15.45;;
41263;SDS011;26998;48.714;9.414;2023-04-08T00:53:14;22.83;;;15.30;;
41263;SDS011;26998;48.714;9.414;2023-04-08T00:55:43;22.42;;;15.27;;
41263;SDS011;26998;48.714;9.414;2023-04-08T00:58:11;22.45;;;15.13;;
41263;SDS011;26998;48.714;9.414;2023-04-08T01:00:41;23.00;;;16.15;;
41263;SDS011;26998;48.714;9.414;2023-04-08T01:03:15;26.00;;;18.85;;
41263;SDS011;26998;48.714;9.414;2023-04-08T01:08:37;28.50;;;17.58;;
41263;SDS011;26998;48.714;9.414;2023-04-08T01:11:08;25.08;;;17.17;;
41263;SDS011;26998;48.714;9.414;2023-04-08T01:13:37;29.88;;;18.30;;
41263;SDS011;26998;48.714;9.414;2023-04-08T01:18:36;24.83;;;17.27;;
41263;SDS011;26998;48.714;9.414;2023-04-08T01:21:04;27.17;;;16.98;;
41263;SDS011;26998;48.714;9.414;2023-04-08T01:23:36;25.30;;;17.48;;
41263;SDS011;26998;48.714;9.414;2023-04-08T01:26:12;27.70;;;17.85;;
41263;SDS011;26998;48.714;9.414;2023-04-08T01:28:48;27.65;;;17.98;;
41263;SDS011;26998;48.714;9.414;2023-04-08T01:31:17;24.83;;;17.65;;
41263;SDS011;26998;48.714;9.414;2023-04-08T01:33:45;30.25;;;19.60;;
41263;SDS011;26998;48.714;9.414;2023-04-08T01:36:14;26.75;;;17.80;;
41263;SDS011;26998;48.714;9.414;2023-04-08T01:38:41;26.73;;;17.55;;
41263;SDS011;26998;48.714;9.414;2023-04-08T01:41:09;26.95;;;17.42;;
41263;SDS011;26998;48.714;9.414;2023-04-08T01:43:38;26.38;;;18.33;;
41263;SDS011;26998;48.714;9.414;2023-04-08T01:46:06;28.48;;;18.52;;
41263;SDS011;26998;48.714;9.414;2023-04-08T01:48:36;25.75;;;17.52;;
41263;SDS011;26998;48.714;9.414;2023-04-08T01:51:04;28.52;;;19.83;;
41263;SDS011;26998;48.714;9.414;2023-04-08T01:53:31;28.25;;;19.20;;
41263;SDS011;26998;48.714;9.414;2023-04-08T01:56:05;27.40;;;17.70;;
41263;SDS011;26998;48.714;9.414;2023-04-08T01:58:38;26.60;;;17.45;;
41263;SDS011;26998;48.714;9.414;2023-04-08T02:01:11;24.52;;;17.98;;
41263;SDS011;26998;48.714;9.414;2023-04-08T02:03:40;26.80;;;18.67;;
41263;SDS011;26998;48.714;9.414;2023-04-08T02:06:08;26.95;;;18.70;;
41263;SDS011;26998;48.714;9.414;2023-04-08T02:08:35;27.05;;;18.70;;
41263;SDS011;26998;48.714;9.414;2023-04-08T02:11:02;28.40;;;19.40;;
41263;SDS011;26998;48.714;9.414;2023-04-08T02:13:29;29.05;;;19.90;;
41263;SDS011;26998;48.714;9.414;2023-04-08T02:15:59;26.40;;;18.23;;
41263;SDS011;26998;48.714;9.414;2023-04-08T02:18:31;27.48;;;17.88;;
41263;SDS011;26998;48.714;9.414;2023-04-08T02:21:10;28.45;;;18.85;;
41263;SDS011;26998;48.714;9.414;2023-04-08T02:23:40;27.25;;;19.23;;
41263;SDS011;26998;48.714;9.414;2023-04-08T02:26:11;29.08;;;19.90;;
41263;SDS011;26998;48.714;9.414;2023-04-08T02:28:40;28.52;;;20.17;;
41263;SDS011;26998;48.714;9.414;2023-04-08T02:31:09;30.60;;;21.00;;
41263;SDS011;26998;48.714;9.414;2023-04-08T02:33:36;28.98;;;19.83;;
41263;SDS011;26998;48.714;9.414;2023-04-08T02:36:04;33.35;;;21.42;;
41263;SDS011;26998;48.714;9.414;2023-04-08T02:38:32;30.65;;;20.75;;
41263;SDS011;26998;48.714;9.414;2023-04-08T02:40:58;30.08;;;19.75;;
41263;SDS011;26998;48.714;9.414;2023-04-08T02:43:25;28.98;;;19.50;;
41263;SDS011;26998;48.714;9.414;2023-04-08T02:45:51;25.98;;;18.05;;
41263;SDS011;26998;48.714;9.414;2023-04-08T02:48:18;25.95;;;17.95;;
41263;SDS011;26998;48.714;9.414;2023-04-08T02:50:45;29.35;;;19.73;;
41263;SDS011;26998;48.714;9.414;2023-04-08T02:53:11;23.58;;;17.58;;
41263;SDS011;26998;48.714;9.414;2023-04-08T02:55:38;26.35;;;17.45;;
41263;SDS011;26998;48.714;9.414;2023-04-08T02:58:04;26.75;;;18.45;;
41263;SDS011;26998;48.714;9.414;2023-04-08T03:00:31;24.08;;;17.63;;
41263;SDS011;26998;48.714;9.414;2023-04-08T03:02:57;27.77;;;19.40;;
41263;SDS011;26998;48.714;9.414;2023-04-08T03:05:25;28.52;;;19.25;;
41263;SDS011;26998;48.714;9.414;2023-04-08T03:07:52;29.33;;;19.88;;
41263;SDS011;26998;48.714;9.414;2023-04-08T03:10:18;28.52;;;19.00;;
41263;SDS011;26998;48.714;9.414;2023-04-08T03:12:45;25.83;;;18.50;;
41263;SDS011;26998;48.714;9.414;2023-04-08T03:15:12;25.35;;;17.65;;
41263;SDS011;26998;48.714;9.414;2023-04-08T03:17:38;25.77;;;17.35;;
41263;SDS011;26998;48.714;9.414;2023-04-08T03:20:05;26.70;;;19.02;;
41263;SDS011;26998;48.714;9.414;2023-04-08T03:22:33;27.60;;;18.95;;
41263;SDS011;26998;48.714;9.414;2023-04-08T03:24:59;26.40;;;18.05;;
41263;SDS011;26998;48.714;9.414;2023-04-08T03:27:26;27.63;;;18.95;;
41263;SDS011;26998;48.714;9.414;2023-04-08T03:29:53;28.58;;;19.48;;
41263;SDS011;26998;48.714;9.414;2023-04-08T03:32:20;27.42;;;20.15;;
41263;SDS011;26998;48.714;9.414;2023-04-08T03:34:46;24.73;;;17.80;;
41263;SDS011;26998;48.714;9.414;2023-04-08T03:37:13;30.15;;;20.33;;
41263;SDS011;26998;48.714;9.414;2023-04-08T03:39:40;24.90;;;18.02;;
41263;SDS011;26998;48.714;9.414;2023-04-08T03:42:06;28.17;;;19.58;;
41263;SDS011;26998;48.714;9.414;2023-04-08T03:44:33;28.33;;;19.35;;
41263;SDS011;26998;48.714;9.414;2023-04-08T03:46:59;29.70;;;19.35;;
41263;SDS011;26998;48.714;9.414;2023-04-08T03:49:26;26.73;;;18.90;;
41263;SDS011;26998;48.714;9.414;2023-04-08T03:51:52;26.95;;;19.45;;
41263;SDS011;26998;48.714;9.414;2023-04-08T03:54:19;29.52;;;20.55;;
41263;SDS011;26998;48.714;9.414;2023-04-08T03:56:45;28.13;;;19.77;;
41263;SDS011;26998;48.714;9.414;2023-04-08T03:59:12;24.88;;;18.23;;
41263;SDS011;26998;48.714;9.414;2023-04-08T04:01:38;28.05;;;18.73;;
41263;SDS011;26998;48.714;9.414;2023-04-08T04:04:07;27.63;;;18.35;;
41263;SDS011;26998;48.714;9.414;2023-04-08T04:06:33;25.90;;;18.88;;
41263;SDS011;26998;48.714;9.414;2023-04-08T04:09:00;28.48;;;18.98;;
41263;SDS011;26998;48.714;9.414;2023-04-08T04:11:26;25.73;;;18.10;;
41263;SDS011;26998;48.714;9.414;2023-04-08T04:13:53;29.60;;;19.48;;
41263;SDS011;26998;48.714;9.414;2023-04-08T04:16:19;28.35;;;18.42;;
41263;SDS011;26998;48.714;9.414;2023-04-08T04:18:46;29.00;;;18.85;;
41263;SDS011;26998;48.714;9.414;2023-04-08T04:21:13;26.85;;;18.05;;
41263;SDS011;26998;48.714;9.414;2023-04-08T04:23:40;28.25;;;19.90;;
41263;SDS011;26998;48.714;9.414;2023-04-08T04:26:07;27.73;;;18.17;;
41263;SDS011;26998;48.714;9.414;2023-04-08T04:28:34;29.05;;;19.10;;
41263;SDS011;26998;48.714;9.414;2023-04-08T04:31:01;28.33;;;19.30;;
41263;SDS011;26998;48.714;9.414;2023-04-08T04:33:28;30.38;;;18.65;;
41263;SDS011;26998;48.714;9.414;2023-04-08T04:35:55;29.17;;;18.17;;
41263;SDS011;26998;48.714;9.414;2023-04-08T04:38:21;29.10;;;18.83;;
41263;SDS011;26998;48.714;9.414;2023-04-08T04:40:48;25.63;;;17.67;;
41263;SDS011;26998;48.714;9.414;2023-04-08T04:43:14;27.00;;;18.17;;
41263;SDS011;26998;48.714;9.414;2023-04-08T04:45:41;27.13;;;17.83;;
41263;SDS011;26998;48.714;9.414;2023-04-08T04:48:08;28.67;;;18.00;;
41263;SDS011;26998;48.714;9.414;2023-04-08T04:50:34;28.98;;;19.95;;
41263;SDS011;26998;48.714;9.414;2023-04-08T04:53:01;32.72;;;20.95;;
41263;SDS011;26998;48.714;9.414;2023-04-08T04:55:27;34.08;;;20.13;;
41263;SDS011;26998;48.714;9.414;2023-04-08T04:57:54;32.67;;;19.65;;
41263;SDS011;26998;48.714;9.414;2023-04-08T05:00:20;29.35;;;19.83;;
41263;SDS011;26998;48.714;9.414;2023-04-08T05:02:47;33.33;;;21.35;;
41263;SDS011;26998;48.714;9.414;2023-04-08T05:05:14;32.47;;;21.25;;
41263;SDS011;26998;48.714;9.414;2023-04-08T05:07:41;32.20;;;19.98;;
41263;SDS011;26998;48.714;9.414;2023-04-08T05:10:07;32.20;;;20.55;;
41263;SDS011;26998;48.714;9.414;2023-04-08T05:12:34;28.75;;;19.35;;
41263;SDS011;26998;48.714;9.414;2023-04-08T05:15:00;35.05;;;20.10;;
41263;SDS011;26998;48.714;9.414;2023-04-08T05:17:27;28.90;;;18.67;;
41263;SDS011;26998;48.714;9.414;2023-04-08T05:19:54;28.58;;;18.77;;
41263;SDS011;26998;48.714;9.414;2023-04-08T05:22:21;30.13;;;19.27;;
41263;SDS011;26998;48.714;9.414;2023-04-08T05:24:47;25.83;;;16.95;;
41263;SDS011;26998;48.714;9.414;2023-04-08T05:27:14;28.50;;;18.70;;
41263;SDS011;26998;48.714;9.414;2023-04-08T05:29:41;28.02;;;17.98;;
41263;SDS011;26998;48.714;9.414;2023-04-08T05:32:07;33.70;;;19.92;;
41263;SDS011;26998;48.714;9.414;2023-04-08T05:34:34;34.08;;;19.50;;
41263;SDS011;26998;48.714;9.414;2023-04-08T05:37:00;36.00;;;19.30;;
41263;SDS011;26998;48.714;9.414;2023-04-08T05:39:27;33.08;;;19.80;;
41263;SDS011;26998;48.714;9.414;2023-04-08T05:41:54;32.15;;;19.60;;
41263;SDS011;26998;48.714;9.414;2023-04-08T05:44:20;26.42;;;17.60;;
41263;SDS011;26998;48.714;9.414;2023-04-08T05:46:47;30.52;;;17.88;;
41263;SDS011;26998;48.714;9.414;2023-04-08T05:49:14;27.00;;;17.90;;
41263;SDS011;26998;48.714;9.414;2023-04-08T05:51:40;24.25;;;17.05;;
41263;SDS011;26998;48.714;9.414;2023-04-08T05:54:07;29.10;;;16.60;;
41263;SDS011;26998;48.714;9.414;2023-04-08T05:56:34;25.50;;;17.10;;
41263;SDS011;26998;48.714;9.414;2023-04-08T05:59:00;28.30;;;18.33;;
41263;SDS011;26998;48.714;9.414;2023-04-08T06:01:27;26.55;;;17.48;;
41263;SDS011;26998;48.714;9.414;2023-04-08T06:03:54;27.38;;;17.45;;
41263;SDS011;26998;48.714;9.414;2023-04-08T06:06:21;29.70;;;18.55;;
41263;SDS011;26998;48.714;9.414;2023-04-08T06:08:48;24.75;;;17.90;;
41263;SDS011;26998;48.714;9.414;2023-04-08T06:11:15;22.77;;;15.88;;
41263;SDS011;26998;48.714;9.414;2023-04-08T06:13:42;27.42;;;17.42;;
41263;SDS011;26998;48.714;9.414;2023-04-08T06:16:11;28.20;;;18.45;;
41263;SDS011;26998;48.714;9.414;2023-04-08T06:18:44;28.48;;;18.15;;
41263;SDS011;26998;48.714;9.414;2023-04-08T06:21:10;25.67;;;16.73;;
41263;SDS011;26998;48.714;9.414;2023-04-08T06:23:37;31.77;;;20.20;;
41263;SDS011;26998;48.714;9.414;2023-04-08T06:26:03;27.33;;;17.75;;
41263;SDS011;26998;48.714;9.414;2023-04-08T06:28:30;28.48;;;18.35;;
41263;SDS011;26998;48.714;9.414;2023-04-08T06:30:59;30.70;;;18.42;;
41263;SDS011;26998;48.714;9.414;2023-04-08T06:33:25;29.27;;;19.10;;
41263;SDS011;26998;48.714;9.414;2023-04-08T06:36:00;31.30;;;20.40;;
41263;SDS011;26998;48.714;9.414;2023-04-08T06:38:27;31.60;;;20.33;;
41263;SDS011;26998;48.714;9.414;2023-04-08T06:40:54;30.98;;;19.92;;
41263;SDS011;26998;48.714;9.414;2023-04-08T06:43:20;26.92;;;19.10;;
41263;SDS011;26998;48.714;9.414;2023-04-08T06:45:47;28.08;;;19.30;;
41263;SDS011;26998;48.714;9.414;2023-04-08T06:48:15;26.98;;;18.58;;
41263;SDS011;26998;48.714;9.414;2023-04-08T06:50:41;30.98;;;19.10;;
41263;SDS011;26998;48.714;9.414;2023-04-08T06:53:08;25.75;;;17.50;;
41263;SDS011;26998;48.714;9.414;2023-04-08T06:55:34;29.50;;;18.63;;
41263;SDS011;26998;48.714;9.414;2023-04-08T06:58:01;27.08;;;18.35;;
41263;SDS011;26998;48.714;9.414;2023-04-08T07:00:27;29.48;;;19.02;;
41263;SDS011;26998;48.714;9.414;2023-04-08T07:02:54;27.65;;;18.20;;
41263;SDS011;26998;48.714;9.414;2023-04-08T07:05:21;31.48;;;19.90;;
41263;SDS011;26998;48.714;9.414;2023-04-08T07:07:47;30.63;;;19.90;;
41263;SDS011;26998;48.714;9.414;2023-04-08T07:10:14;26.27;;;18.48;;
41263;SDS011;26998;48.714;9.414;2023-04-08T07:12:40;24.95;;;18.30;;
41263;SDS011;26998;48.714;9.414;2023-04-08T07:15:07;28.38;;;17.85;;
41263;SDS011;26998;48.714;9.414;2023-04-08T07:17:34;24.85;;;16.50;;
41263;SDS011;26998;48.714;9.414;2023-04-08T07:20:01;24.42;;;15.10;;
41263;SDS011;26998;48.714;9.414;2023-04-08T07:22:27;20.95;;;13.93;;
41263;SDS011;26998;48.714;9.414;2023-04-08T07:24:54;19.30;;;14.63;;
41263;SDS011;26998;48.714;9.414;2023-04-08T07:27:20;19.42;;;13.73;;
41263;SDS011;26998;48.714;9.414;2023-04-08T07:29:51;19.67;;;14.38;;
41263;SDS011;26998;48.714;9.414;2023-04-08T07:32:18;22.02;;;16.13;;
41263;SDS011;26998;48.714;9.414;2023-04-08T07:34:44;23.10;;;16.70;;
41263;SDS011;26998;48.714;9.414;2023-04-08T07:37:11;26.40;;;17.65;;
41263;SDS011;26998;48.714;9.414;2023-04-08T07:39:38;25.35;;;17.67;;
41263;SDS011;26998;48.714;9.414;2023-04-08T07:42:05;24.52;;;17.20;;
41263;SDS011;26998;48.714;9.414;2023-04-08T07:44:31;26.83;;;18.20;;
41263;SDS011;26998;48.714;9.414;2023-04-08T07:46:58;26.63;;;18.50;;
41263;SDS011;26998;48.714;9.414;2023-04-08T07:49:24;26.70;;;17.20;;
41263;SDS011;26998;48.714;9.414;2023-04-08T07:51:51;28.67;;;18.85;;
41263;SDS011;26998;48.714;9.414;2023-04-08T07:54:18;24.85;;;16.98;;
41263;SDS011;26998;48.714;9.414;2023-04-08T07:56:44;24.80;;;16.73;;
41263;SDS011;26998;48.714;9.414;2023-04-08T07:59:11;24.50;;;16.90;;
41263;SDS011;26998;48.714;9.414;2023-04-08T08:01:38;23.90;;;16.23;;
41263;SDS011;26998;48.714;9.414;2023-04-08T08:04:04;19.95;;;14.50;;
41263;SDS011;26998;48.714;9.414;2023-04-08T08:06:31;18.95;;;15.18;;
41263;SDS011;26998;48.714;9.414;2023-04-08T08:08:58;19.17;;;14.85;;
41263;SDS011;26998;48.714;9.414;2023-04-08T08:11:26;18.20;;;13.90;;
41263;SDS011;26998;48.714;9.414;2023-04-08T08:13:52;20.27;;;13.95;;
41263;SDS011;26998;48.714;9.414;2023-04-08T08:16:19;18.58;;;14.55;;
41263;SDS011;26998;48.714;9.414;2023-04-08T08:18:46;22.75;;;14.65;;
41263;SDS011;26998;48.714;9.414;2023-04-08T08:21:12;24.30;;;15.20;;
41263;SDS011;26998;48.714;9.414;2023-04-08T08:23:38;21.05;;;14.43;;
41263;SDS011;26998;48.714;9.414;2023-04-08T08:26:06;21.17;;;14.60;;
41263;SDS011;26998;48.714;9.414;2023-04-08T08:28:33;20.58;;;15.73;;
41263;SDS011;26998;48.714;9.414;2023-04-08T08:31:00;18.63;;;14.20;;
41263;SDS011;26998;48.714;9.414;2023-04-08T08:33:27;20.63;;;15.52;;
41263;SDS011;26998;48.714;9.414;2023-04-08T08:35:53;18.23;;;14.65;;
41263;SDS011;26998;48.714;9.414;2023-04-08T08:38:20;20.17;;;15.70;;
41263;SDS011;26998;48.714;9.414;2023-04-08T08:40:48;20.85;;;14.68;;
41263;SDS011;26998;48.714;9.414;2023-04-08T08:43:19;17.65;;;14.75;;
41263;SDS011;26998;48.714;9.414;2023-04-08T08:45:46;19.60;;;14.88;;
41263;SDS011;26998;48.714;9.414;2023-04-08T08:48:12;19.20;;;15.13;;
41263;SDS011;26998;48.714;9.414;2023-04-08T08:50:39;22.40;;;15.48;;
41263;SDS011;26998;48.714;9.414;2023-04-08T08:53:05;18.67;;;14.90;;
41263;SDS011;26998;48.714;9.414;2023-04-08T08:55:32;18.90;;;14.63;;
41263;SDS011;26998;48.714;9.414;2023-04-08T08:58:19;18.73;;;15.25;;
41263;SDS011;26998;48.714;9.414;2023-04-08T09:00:45;18.65;;;14.77;;
41263;SDS011;26998;48.714;9.414;2023-04-08T09:03:13;22.52;;;15.77;;
41263;SDS011;26998;48.714;9.414;2023-04-08T09:08:25;21.00;;;15.05;;
41263;SDS011;26998;48.714;9.414;2023-04-08T09:11:18;18.75;;;14.82;;
41263;SDS011;26998;48.714;9.414;2023-04-08T09:13:45;20.10;;;15.02;;
41263;SDS011;26998;48.714;9.414;2023-04-08T09:16:14;18.67;;;15.05;;
41263;SDS011;26998;48.714;9.414;2023-04-08T09:18:42;18.60;;;14.68;;
41263;SDS011;26998;48.714;9.414;2023-04-08T09:21:10;18.10;;;14.60;;
41263;SDS011;26998;48.714;9.414;2023-04-08T09:26:08;18.20;;;14.07;;
41263;SDS011;26998;48.714;9.414;2023-04-08T09:28:36;17.40;;;14.05;;
41263;SDS011;26998;48.714;9.414;2023-04-08T09:31:22;15.20;;;13.05;;
41263;SDS011;26998;48.714;9.414;2023-04-08T09:33:52;16.98;;;14.32;;
41263;SDS011;26998;48.714;9.414;2023-04-08T09:36:23;19.25;;;13.43;;
41263;SDS011;26998;48.714;9.414;2023-04-08T09:38:50;16.38;;;14.27;;
41263;SDS011;26998;48.714;9.414;2023-04-08T09:41:18;17.15;;;14.80;;
41263;SDS011;26998;48.714;9.414;2023-04-08T09:43:54;18.17;;;14.50;;
41263;SDS011;26998;48.714;9.414;2023-04-08T09:46:25;19.60;;;15.15;;
41263;SDS011;26998;48.714;9.414;2023-04-08T09:49:11;21.38;;;13.52;;
41263;SDS011;26998;48.714;9.414;2023-04-08T09:51:48;18.10;;;13.93;;
41263;SDS011;26998;48.714;9.414;2023-04-08T09:54:19;18.38;;;14.00;;
41263;SDS011;26998;48.714;9.414;2023-04-08T09:56:53;16.00;;;13.07;;
41263;SDS011;26998;48.714;9.414;2023-04-08T09:59:26;15.90;;;13.20;;
41263;SDS011;26998;48.714;9.414;2023-04-08T10:02:00;17.88;;;13.63;;
41263;SDS011;26998;48.714;9.414;2023-04-08T10:04:35;16.15;;;13.95;;
41263;SDS011;26998;48.714;9.414;2023-04-08T10:07:07;14.30;;;12.18;;
41263;SDS011;26998;48.714;9.414;2023-04-08T10:09:34;16.90;;;13.75;;
41263;SDS011;26998;48.714;9.414;2023-04-08T10:12:01;16.17;;;13.75;;
41263;SDS011;26998;48.714;9.414;2023-04-08T10:14:29;16.42;;;12.68;;
41263;SDS011;26998;48.714;9.414;2023-04-08T10:17:22;15.02;;;12.43;;
41263;SDS011;26998;48.714;9.414;2023-04-08T10:19:50;16.55;;;13.43;;
41263;SDS011;26998;48.714;9.414;2023-04-08T10:25:27;16.17;;;14.15;;
41263;SDS011;26998;48.714;9.414;2023-04-08T10:30:41;19.05;;;14.18;;
41263;SDS011;26998;48.714;9.414;2023-04-08T10:33:12;18.02;;;13.65;;
41263;SDS011;26998;48.714;9.414;2023-04-08T10:35:41;16.85;;;13.48;;
41263;SDS011;26998;48.714;9.414;2023-04-08T10:38:08;18.88;;;14.40;;
41263;SDS011;26998;48.714;9.414;2023-04-08T10:40:35;15.57;;;13.80;;
41263;SDS011;26998;48.714;9.414;2023-04-08T10:43:03;16.98;;;14.25;;
41263;SDS011;26998;48.714;9.414;2023-04-08T10:45:30;19.63;;;15.63;;
41263;SDS011;26998;48.714;9.414;2023-04-08T10:47:56;18.10;;;14.60;;
41263;SDS011;26998;48.714;9.414;2023-04-08T10:50:37;18.55;;;14.63;;
41263;SDS011;26998;48.714;9.414;2023-04-08T10:53:04;18.70;;;13.80;;
41263;SDS011;26998;48.714;9.414;2023-04-08T10:55:32;19.20;;;14.95;;
41263;SDS011;26998;48.714;9.414;2023-04-08T10:58:05;17.30;;;14.70;;
41263;SDS011;26998;48.714;9.414;2023-04-08T11:00:36;16.17;;;13.57;;
41263;SDS011;26998;48.714;9.414;2023-04-08T11:03:05;16.67;;;14.32;;
41263;SDS011;26998;48.714;9.414;2023-04-08T11:05:34;17.55;;;14.85;;
41263;SDS011;26998;48.714;9.414;2023-04-08T11:08:01;18.27;;;15.05;;
41263;SDS011;26998;48.714;9.414;2023-04-08T11:10:28;16.30;;;13.68;;
41263;SDS011;26998;48.714;9.414;2023-04-08T11:12:54;18.00;;;14.68;;
41263;SDS011;26998;48.714;9.414;2023-04-08T11:15:23;17.17;;;14.10;;
41263;SDS011;26998;48.714;9.414;2023-04-08T11:17:50;16.63;;;13.50;;
41263;SDS011;26998;48.714;9.414;2023-04-08T11:20:17;13.43;;;12.02;;
41263;SDS011;26998;48.714;9.414;2023-04-08T11:22:44;17.42;;;13.57;;
41263;SDS011;26998;48.714;9.414;2023-04-08T11:25:11;16.85;;;13.35;;
41263;SDS011;26998;48.714;9.414;2023-04-08T11:27:37;16.13;;;13.23;;
41263;SDS011;26998;48.714;9.414;2023-04-08T11:30:05;14.18;;;11.43;;
41263;SDS011;26998;48.714;9.414;2023-04-08T11:32:34;15.10;;;11.88;;
41263;SDS011;26998;48.714;9.414;2023-04-08T11:35:03;15.77;;;11.30;;
41263;SDS011;26998;48.714;9.414;2023-04-08T11:37:40;15.27;;;11.70;;
41263;SDS011;26998;48.714;9.414;2023-04-08T11:40:07;14.90;;;12.20;;
41263;SDS011;26998;48.714;9.414;2023-04-08T11:42:35;12.95;;;10.68;;
41263;SDS011;26998;48.714;9.414;2023-04-08T11:45:08;16.63;;;11.45;;
41263;SDS011;26998;48.714;9.414;2023-04-08T11:47:36;14.00;;;10.82;;
41263;SDS011;26998;48.714;9.414;2023-04-08T11:50:03;18.48;;;10.98;;
41263;SDS011;26998;48.714;9.414;2023-04-08T11:55:11;11.33;;;9.47;;
41263;SDS011;26998;48.714;9.414;2023-04-08T11:57:47;12.95;;;10.13;;
41263;SDS011;26998;48.714;9.414;2023-04-08T12:00:13;12.93;;;9.32;;
41263;SDS011;26998;48.714;9.414;2023-04-08T12:02:40;11.43;;;10.15;;
41263;SDS011;26998;48.714;9.414;2023-04-08T12:05:07;12.20;;;10.05;;
41263;SDS011;26998;48.714;9.414;2023-04-08T12:07:34;12.43;;;9.65;;
41263;SDS011;26998;48.714;9.414;2023-04-08T12:10:00;11.88;;;9.43;;
41263;SDS011;26998;48.714;9.414;2023-04-08T12:12:27;12.07;;;9.23;;
41263;SDS011;26998;48.714;9.414;2023-04-08T12:14:54;11.85;;;9.30;;
41263;SDS011;26998;48.714;9.414;2023-04-08T12:17:20;15.10;;;9.77;;
41263;SDS011;26998;48.714;9.414;2023-04-08T12:19:46;13.20;;;10.43;;
41263;SDS011;26998;48.714;9.414;2023-04-08T12:22:13;11.43;;;9.27;;
41263;SDS011;26998;48.714;9.414;2023-04-08T12:24:39;13.38;;;9.82;;
41263;SDS011;26998;48.714;9.414;2023-04-08T12:27:06;14.07;;;10.27;;
41263;SDS011;26998;48.714;9.414;2023-04-08T12:29:33;15.23;;;10.93;;
41263;SDS011;26998;48.714;9.414;2023-04-08T12:31:59;20.48;;;14.30;;
41263;SDS011;26998;48.714;9.414;2023-04-08T12:34:26;11.25;;;9.77;;
41263;SDS011;26998;48.714;9.414;2023-04-08T12:36:53;14.30;;;10.27;;
41263;SDS011;26998;48.714;9.414;2023-04-08T12:39:20;13.55;;;10.48;;
41263;SDS011;26998;48.714;9.414;2023-04-08T12:41:47;13.00;;;10.88;;
41263;SDS011;26998;48.714;9.414;2023-04-08T12:44:14;14.98;;;11.38;;
41263;SDS011;26998;48.714;9.414;2023-04-08T12:46:40;14.65;;;10.85;;
41263;SDS011;26998;48.714;9.414;2023-04-08T12:49:07;13.75;;;11.50;;
41263;SDS011;26998;48.714;9.414;2023-04-08T12:51:34;14.15;;;11.50;;
41263;SDS011;26998;48.714;9.414;2023-04-08T12:54:01;20.38;;;12.02;;
41263;SDS011;26998;48.714;9.414;2023-04-08T12:56:28;14.82;;;11.43;;
41263;SDS011;26998;48.714;9.414;2023-04-08T12:58:55;13.18;;;11.10;;
41263;SDS011;26998;48.714;9.414;2023-04-08T13:01:22;11.82;;;10.63;;
41263;SDS011;26998;48.714;9.414;2023-04-08T13:03:49;12.60;;;11.30;;
41263;SDS011;26998;48.714;9.414;2023-04-08T13:06:15;13.98;;;11.07;;
41263;SDS011;26998;48.714;9.414;2023-04-08T13:08:42;12.07;;;10.43;;
41263;SDS011;26998;48.714;9.414;2023-04-08T13:11:08;12.50;;;11.20;;
41263;SDS011;26998;48.714;9.414;2023-04-08T13:13:35;13.73;;;10.82;;
41263;SDS011;26998;48.714;9.414;2023-04-08T13:16:02;13.25;;;10.23;;
41263;SDS011;26998;48.714;9.414;2023-04-08T13:18:28;13.55;;;11.77;;
41263;SDS011;26998;48.714;9.414;2023-04-08T13:20:55;11.57;;;9.73;;
41263;SDS011;26998;48.714;9.414;2023-04-08T13:23:22;12.40;;;10.77;;
41263;SDS011;26998;48.714;9.414;2023-04-08T13:25:49;13.43;;;11.90;;
41263;SDS011;26998;48.714;9.414;2023-04-08T13:28:15;14.60;;;11.82;;
41263;SDS011;26998;48.714;9.414;2023-04-08T13:30:41;14.13;;;11.20;;
41263;SDS011;26998;48.714;9.414;2023-04-08T13:33:08;17.80;;;12.50;;
41263;SDS011;26998;48.714;9.414;2023-04-08T13:35:34;29.45;;;18.92;;
41263;SDS011;26998;48.714;9.414;2023-04-08T13:38:01;18.02;;;13.63;;
41263;SDS011;26998;48.714;9.414;2023-04-08T13:40:27;14.45;;;12.45;;
41263;SDS011;26998;48.714;9.414;2023-04-08T13:42:54;13.57;;;10.82;;
41263;SDS011;26998;48.714;9.414;2023-04-08T13:45:20;12.07;;;10.68;;
41263;SDS011;26998;48.714;9.414;2023-04-08T13:47:47;14.68;;;10.93;;
41263;SDS011;26998;48.714;9.414;2023-04-08T13:50:14;12.80;;;11.43;;
41263;SDS011;26998;48.714;9.414;2023-04-08T13:52:40;13.27;;;11.70;;
41263;SDS011;26998;48.714;9.414;2023-04-08T13:55:07;16.75;;;12.05;;
41263;SDS011;26998;48.714;9.414;2023-04-08T13:57:34;30.13;;;11.95;;
41263;SDS011;26998;48.714;9.414;2023-04-08T14:00:02;14.95;;;11.70;;
41263;SDS011;26998;48.714;9.414;2023-04-08T14:02:28;13.60;;;11.63;;
41263;SDS011;26998;48.714;9.414;2023-04-08T14:04:55;14.15;;;11.38;;
41263;SDS011;26998;48.714;9.414;2023-04-08T14:07:22;14.63;;;11.27;;
41263;SDS011;26998;48.714;9.414;2023-04-08T14:09:48;12.65;;;10.55;;
41263;SDS011;26998;48.714;9.414;2023-04-08T14:12:15;14.90;;;11.13;;
41263;SDS011;26998;48.714;9.414;2023-04-08T14:14:42;14.48;;;11.55;;
41263;SDS011;26998;48.714;9.414;2023-04-08T14:17:08;12.65;;;11.05;;
41263;SDS011;26998;48.714;9.414;2023-04-08T14:19:35;13.90;;;10.80;;
41263;SDS011;26998;48.714;9.414;2023-04-08T14:22:02;14.43;;;10.85;;
41263;SDS011;26998;48.714;9.414;2023-04-08T14:24:28;14.35;;;10.90;;
41263;SDS011;26998;48.714;9.414;2023-04-08T14:26:56;13.43;;;11.13;;
41263;SDS011;26998;48.714;9.414;2023-04-08T14:29:22;14.38;;;11.57;;
41263;SDS011;26998;48.714;9.414;2023-04-08T14:31:52;11.68;;;10.23;;
41263;SDS011;26998;48.714;9.414;2023-04-08T14:34:19;17.83;;;10.52;;
41263;SDS011;26998;48.714;9.414;2023-04-08T14:36:49;12.05;;;9.73;;
41263;SDS011;26998;48.714;9.414;2023-04-08T14:39:16;15.43;;;10.82;;
41263;SDS011;26998;48.714;9.414;2023-04-08T14:41:43;13.43;;;10.35;;
41263;SDS011;26998;48.714;9.414;2023-04-08T14:44:09;10.60;;;9.50;;